sensor_id;sensor_type;location;lat;lon;timestamp;temperature;humidity
21778;DHT22;11050;52.222;20.916;2023-05-10T00:01:24;8.10;67.80
21778;DHT22;11050;52.222;20.916;2023-05-10T00:03:50;8.10;67.80
21778;DHT22;11050;52.222;20.916;2023-05-10T00:06:15;8.10;68.00
21778;DHT22;11050;52.222;20.916;2023-05-10T00:08:41;8.00;68.60
21778;DHT22;11050;52.222;20.916;2023-05-10T00:11:07;8.10;68.50
21778;DHT22;11050;52.222;20.916;2023-05-10T00:13:33;8.00;68.60
21778;DHT22;11050;52.222;20.916;2023-05-10T00:15:58;7.90;68.70
21778;DHT22;11050;52.222;20.916;2023-05-10T00:18:24;7.90;69.30
21778;DHT22;11050;52.222;20.916;2023-05-10T00:20:50;7.90;69.60
21778;DHT22;11050;52.222;20.916;2023-05-10T00:23:16;7.80;70.00
21778;DHT22;11050;52.222;20.916;2023-05-10T00:25:41;7.80;70.40
21778;DHT22;11050;52.222;20.916;2023-05-10T00:28:07;7.70;70.50
21778;DHT22;11050;52.222;20.916;2023-05-10T00:30:33;7.70;71.00
21778;DHT22;11050;52.222;20.916;2023-05-10T00:32:58;7.60;71.40
21778;DHT22;11050;52.222;20.916;2023-05-10T00:35:24;7.60;71.40
21778;DHT22;11050;52.222;20.916;2023-05-10T00:37:50;7.50;71.40
21778;DHT22;11050;52.222;20.916;2023-05-10T00:40:15;7.50;71.50
21778;DHT22;11050;52.222;20.916;2023-05-10T00:42:41;7.50;71.80
21778;DHT22;11050;52.222;20.916;2023-05-10T00:45:07;7.40;71.80
21778;DHT22;11050;52.222;20.916;2023-05-10T00:47:34;7.40;72.20
21778;DHT22;11050;52.222;20.916;2023-05-10T00:50:00;7.40;72.10
21778;DHT22;11050;52.222;20.916;2023-05-10T00:52:28;7.40;72.20
21778;DHT22;11050;52.222;20.916;2023-05-10T00:54:54;7.40;72.10
21778;DHT22;11050;52.222;20.916;2023-05-10T00:57:21;7.30;72.60
21778;DHT22;11050;52.222;20.916;2023-05-10T00:59:47;7.30;72.50
21778;DHT22;11050;52.222;20.916;2023-05-10T01:02:14;7.30;72.60
21778;DHT22;11050;52.222;20.916;2023-05-10T01:04:39;7.20;73.00
21778;DHT22;11050;52.222;20.916;2023-05-10T01:07:06;7.20;73.10
21778;DHT22;11050;52.222;20.916;2023-05-10T01:09:32;7.20;73.20
21778;DHT22;11050;52.222;20.916;2023-05-10T01:11:59;7.10;73.20
21778;DHT22;11050;52.222;20.916;2023-05-10T01:14:26;7.10;73.40
21778;DHT22;11050;52.222;20.916;2023-05-10T01:16:53;7.10;73.40
21778;DHT22;11050;52.222;20.916;2023-05-10T01:19:23;7.10;73.40
21778;DHT22;11050;52.222;20.916;2023-05-10T01:22:25;7.10;73.40
21778;DHT22;11050;52.222;20.916;2023-05-10T01:31:22;7.00;73.30
21778;DHT22;11050;52.222;20.916;2023-05-10T01:34:07;7.00;73.30
21778;DHT22;11050;52.222;20.916;2023-05-10T01:36:47;6.90;73.60
21778;DHT22;11050;52.222;20.916;2023-05-10T01:42:47;6.90;74.40
21778;DHT22;11050;52.222;20.916;2023-05-10T01:45:32;6.80;74.50
21778;DHT22;11050;52.222;20.916;2023-05-10T01:48:09;6.80;74.50
21778;DHT22;11050;52.222;20.916;2023-05-10T01:50:38;6.80;74.40
21778;DHT22;11050;52.222;20.916;2023-05-10T01:53:09;6.70;74.40
21778;DHT22;11050;52.222;20.916;2023-05-10T01:55:47;6.70;74.70
21778;DHT22;11050;52.222;20.916;2023-05-10T01:58:32;6.70;75.00
21778;DHT22;11050;52.222;20.916;2023-05-10T02:01:03;6.60;75.10
21778;DHT22;11050;52.222;20.916;2023-05-10T02:03:32;6.60;75.30
21778;DHT22;11050;52.222;20.916;2023-05-10T02:06:02;6.50;75.60
21778;DHT22;11050;52.222;20.916;2023-05-10T02:08:30;6.50;75.60
21778;DHT22;11050;52.222;20.916;2023-05-10T02:10:57;6.40;75.70
21778;DHT22;11050;52.222;20.916;2023-05-10T02:13:25;6.40;76.00
21778;DHT22;11050;52.222;20.916;2023-05-10T02:15:53;6.40;76.00
21778;DHT22;11050;52.222;20.916;2023-05-10T02:18:21;6.40;76.40
21778;DHT22;11050;52.222;20.916;2023-05-10T02:20:48;6.30;76.40
21778;DHT22;11050;52.222;20.916;2023-05-10T02:23:16;6.30;76.70
21778;DHT22;11050;52.222;20.916;2023-05-10T02:25:43;6.30;76.90
21778;DHT22;11050;52.222;20.916;2023-05-10T02:28:11;6.20;76.90
21778;DHT22;11050;52.222;20.916;2023-05-10T02:30:39;6.20;77.30
21778;DHT22;11050;52.222;20.916;2023-05-10T02:33:07;6.20;77.50
21778;DHT22;11050;52.222;20.916;2023-05-10T02:35:34;6.20;77.60
21778;DHT22;11050;52.222;20.916;2023-05-10T02:38:01;6.10;77.90
21778;DHT22;11050;52.222;20.916;2023-05-10T02:40:28;6.10;77.90
21778;DHT22;11050;52.222;20.916;2023-05-10T02:42:56;6.10;77.80
21778;DHT22;11050;52.222;20.916;2023-05-10T02:45:27;6.10;78.00
21778;DHT22;11050;52.222;20.916;2023-05-10T02:47:56;6.10;78.20
21778;DHT22;11050;52.222;20.916;2023-05-10T02:50:28;6.10;78.20
21778;DHT22;11050;52.222;20.916;2023-05-10T02:53:06;6.10;78.30
21778;DHT22;11050;52.222;20.916;2023-05-10T02:55:38;6.00;78.70
21778;DHT22;11050;52.222;20.916;2023-05-10T02:58:06;6.00;78.80
21778;DHT22;11050;52.222;20.916;2023-05-10T03:00:32;6.00;79.00
21778;DHT22;11050;52.222;20.916;2023-05-10T03:02:58;5.90;79.30
21778;DHT22;11050;52.222;20.916;2023-05-10T03:05:24;5.90;79.50
21778;DHT22;11050;52.222;20.916;2023-05-10T03:07:50;5.90;79.90
21778;DHT22;11050;52.222;20.916;2023-05-10T03:10:17;5.90;80.70
21778;DHT22;11050;52.222;20.916;2023-05-10T03:12:56;5.90;80.00
21778;DHT22;11050;52.222;20.916;2023-05-10T03:16:10;5.90;80.50
21778;DHT22;11050;52.222;20.916;2023-05-10T03:18:52;5.90;80.70
21778;DHT22;11050;52.222;20.916;2023-05-10T03:21:22;5.90;80.70
21778;DHT22;11050;52.222;20.916;2023-05-10T03:23:59;5.90;81.00
21778;DHT22;11050;52.222;20.916;2023-05-10T03:26:33;6.00;81.30
21778;DHT22;11050;52.222;20.916;2023-05-10T03:29:00;5.90;81.00
21778;DHT22;11050;52.222;20.916;2023-05-10T03:31:27;6.00;81.20
21778;DHT22;11050;52.222;20.916;2023-05-10T03:33:53;6.00;81.20
21778;DHT22;11050;52.222;20.916;2023-05-10T03:36:19;6.00;81.50
21778;DHT22;11050;52.222;20.916;2023-05-10T03:38:45;6.00;81.60
21778;DHT22;11050;52.222;20.916;2023-05-10T03:41:11;6.10;81.60
21778;DHT22;11050;52.222;20.916;2023-05-10T03:43:36;6.10;81.70
21778;DHT22;11050;52.222;20.916;2023-05-10T03:46:03;6.10;81.60
21778;DHT22;11050;52.222;20.916;2023-05-10T03:48:30;6.20;81.70
21778;DHT22;11050;52.222;20.916;2023-05-10T03:50:57;6.20;81.60
21778;DHT22;11050;52.222;20.916;2023-05-10T03:53:22;6.30;81.50
21778;DHT22;11050;52.222;20.916;2023-05-10T03:55:48;6.30;81.30
21778;DHT22;11050;52.222;20.916;2023-05-10T03:58:14;6.40;81.40
21778;DHT22;11050;52.222;20.916;2023-05-10T04:00:40;6.50;81.30
21778;DHT22;11050;52.222;20.916;2023-05-10T04:03:11;6.50;81.20
21778;DHT22;11050;52.222;20.916;2023-05-10T04:05:37;6.60;81.10
21778;DHT22;11050;52.222;20.916;2023-05-10T04:08:03;6.60;81.00
21778;DHT22;11050;52.222;20.916;2023-05-10T04:10:30;6.70;81.00
21778;DHT22;11050;52.222;20.916;2023-05-10T04:12:56;6.80;80.80
21778;DHT22;11050;52.222;20.916;2023-05-10T04:15:21;6.80;80.50
21778;DHT22;11050;52.222;20.916;2023-05-10T04:17:47;6.90;80.50
21778;DHT22;11050;52.222;20.916;2023-05-10T04:20:13;6.90;80.20
21778;DHT22;11050;52.222;20.916;2023-05-10T04:22:39;7.00;80.00
21778;DHT22;11050;52.222;20.916;2023-05-10T04:25:06;7.10;79.70
21778;DHT22;11050;52.222;20.916;2023-05-10T04:27:32;7.20;79.50
21778;DHT22;11050;52.222;20.916;2023-05-10T04:29:58;7.20;79.20
21778;DHT22;11050;52.222;20.916;2023-05-10T04:32:24;7.30;79.10
21778;DHT22;11050;52.222;20.916;2023-05-10T04:34:50;7.40;78.80
21778;DHT22;11050;52.222;20.916;2023-05-10T04:37:18;7.50;78.40
21778;DHT22;11050;52.222;20.916;2023-05-10T04:39:45;7.60;78.10
21778;DHT22;11050;52.222;20.916;2023-05-10T04:42:10;7.60;78.00
21778;DHT22;11050;52.222;20.916;2023-05-10T04:44:37;7.70;77.80
21778;DHT22;11050;52.222;20.916;2023-05-10T04:47:03;7.80;77.60
21778;DHT22;11050;52.222;20.916;2023-05-10T04:49:29;7.80;77.50
21778;DHT22;11050;52.222;20.916;2023-05-10T04:51:55;7.90;77.00
21778;DHT22;11050;52.222;20.916;2023-05-10T04:54:21;8.00;77.00
21778;DHT22;11050;52.222;20.916;2023-05-10T04:56:46;8.10;77.00
21778;DHT22;11050;52.222;20.916;2023-05-10T04:59:12;8.20;77.60
21778;DHT22;11050;52.222;20.916;2023-05-10T05:01:38;8.20;76.40
21778;DHT22;11050;52.222;20.916;2023-05-10T05:04:04;8.30;76.10
21778;DHT22;11050;52.222;20.916;2023-05-10T05:06:30;8.40;75.90
21778;DHT22;11050;52.222;20.916;2023-05-10T05:08:55;8.50;75.30
21778;DHT22;11050;52.222;20.916;2023-05-10T05:11:21;8.60;75.30
21778;DHT22;11050;52.222;20.916;2023-05-10T05:13:47;8.60;75.20
21778;DHT22;11050;52.222;20.916;2023-05-10T05:16:13;8.70;75.20
21778;DHT22;11050;52.222;20.916;2023-05-10T05:18:38;8.80;74.90
21778;DHT22;11050;52.222;20.916;2023-05-10T05:21:14;8.90;74.30
21778;DHT22;11050;52.222;20.916;2023-05-10T05:23:43;9.00;74.10
21778;DHT22;11050;52.222;20.916;2023-05-10T05:26:10;9.00;73.70
21778;DHT22;11050;52.222;20.916;2023-05-10T05:28:36;9.10;73.80
21778;DHT22;11050;52.222;20.916;2023-05-10T05:31:06;9.30;73.80
21778;DHT22;11050;52.222;20.916;2023-05-10T05:33:35;9.30;73.50
21778;DHT22;11050;52.222;20.916;2023-05-10T05:36:02;9.40;73.20
21778;DHT22;11050;52.222;20.916;2023-05-10T05:38:29;9.50;73.20
21778;DHT22;11050;52.222;20.916;2023-05-10T05:40:54;9.60;72.50
21778;DHT22;11050;52.222;20.916;2023-05-10T05:43:20;9.70;72.20
21778;DHT22;11050;52.222;20.916;2023-05-10T05:45:46;9.80;72.00
21778;DHT22;11050;52.222;20.916;2023-05-10T05:48:17;9.90;70.70
21778;DHT22;11050;52.222;20.916;2023-05-10T05:50:42;10.00;70.60
21778;DHT22;11050;52.222;20.916;2023-05-10T05:53:09;10.20;70.90
21778;DHT22;11050;52.222;20.916;2023-05-10T05:55:34;10.20;70.20
21778;DHT22;11050;52.222;20.916;2023-05-10T05:58:00;10.40;70.00
21778;DHT22;11050;52.222;20.916;2023-05-10T06:00:26;10.50;70.10
21778;DHT22;11050;52.222;20.916;2023-05-10T06:02:52;10.60;70.90
21778;DHT22;11050;52.222;20.916;2023-05-10T06:05:17;10.70;70.00
21778;DHT22;11050;52.222;20.916;2023-05-10T06:07:43;10.80;69.30
21778;DHT22;11050;52.222;20.916;2023-05-10T06:10:09;10.90;69.10
21778;DHT22;11050;52.222;20.916;2023-05-10T06:12:35;11.10;69.00
21778;DHT22;11050;52.222;20.916;2023-05-10T06:15:01;11.20;68.20
21778;DHT22;11050;52.222;20.916;2023-05-10T06:17:27;11.30;68.00
21778;DHT22;11050;52.222;20.916;2023-05-10T06:19:54;11.40;67.50
21778;DHT22;11050;52.222;20.916;2023-05-10T06:22:20;11.50;67.20
21778;DHT22;11050;52.222;20.916;2023-05-10T06:24:48;11.60;66.90
21778;DHT22;11050;52.222;20.916;2023-05-10T06:27:14;11.80;66.50
21778;DHT22;11050;52.222;20.916;2023-05-10T06:29:40;11.90;65.80
21778;DHT22;11050;52.222;20.916;2023-05-10T06:32:06;12.00;65.80
21778;DHT22;11050;52.222;20.916;2023-05-10T06:34:31;12.10;65.00
21778;DHT22;11050;52.222;20.916;2023-05-10T06:36:57;12.20;64.70
21778;DHT22;11050;52.222;20.916;2023-05-10T06:39:23;12.30;63.40
21778;DHT22;11050;52.222;20.916;2023-05-10T06:41:48;12.40;63.50
21778;DHT22;11050;52.222;20.916;2023-05-10T06:44:14;12.50;63.80
21778;DHT22;11050;52.222;20.916;2023-05-10T06:46:40;12.50;63.60
21778;DHT22;11050;52.222;20.916;2023-05-10T06:49:06;12.70;62.90
21778;DHT22;11050;52.222;20.916;2023-05-10T06:51:32;12.80;61.90
21778;DHT22;11050;52.222;20.916;2023-05-10T06:53:58;12.90;61.30
21778;DHT22;11050;52.222;20.916;2023-05-10T06:56:23;12.90;60.20
21778;DHT22;11050;52.222;20.916;2023-05-10T06:58:49;13.10;60.30
21778;DHT22;11050;52.222;20.916;2023-05-10T07:01:15;13.10;59.70
21778;DHT22;11050;52.222;20.916;2023-05-10T07:03:40;13.20;58.80
21778;DHT22;11050;52.222;20.916;2023-05-10T07:06:06;13.40;59.10
21778;DHT22;11050;52.222;20.916;2023-05-10T07:08:33;13.50;59.90
21778;DHT22;11050;52.222;20.916;2023-05-10T07:11:03;13.60;59.30
21778;DHT22;11050;52.222;20.916;2023-05-10T07:13:31;13.70;59.60
21778;DHT22;11050;52.222;20.916;2023-05-10T07:15:57;13.80;59.60
21778;DHT22;11050;52.222;20.916;2023-05-10T07:18:24;13.90;59.20
21778;DHT22;11050;52.222;20.916;2023-05-10T07:20:50;14.10;57.20
21778;DHT22;11050;52.222;20.916;2023-05-10T07:23:16;14.10;56.00
21778;DHT22;11050;52.222;20.916;2023-05-10T07:25:46;14.20;56.40
21778;DHT22;11050;52.222;20.916;2023-05-10T07:28:14;14.30;56.90
21778;DHT22;11050;52.222;20.916;2023-05-10T07:30:40;14.40;55.00
21778;DHT22;11050;52.222;20.916;2023-05-10T07:33:07;14.50;52.30
21778;DHT22;11050;52.222;20.916;2023-05-10T07:35:34;14.60;52.50
21778;DHT22;11050;52.222;20.916;2023-05-10T07:38:00;14.60;53.70
21778;DHT22;11050;52.222;20.916;2023-05-10T07:40:26;14.70;53.80
21778;DHT22;11050;52.222;20.916;2023-05-10T07:42:52;14.80;53.70
21778;DHT22;11050;52.222;20.916;2023-05-10T07:45:18;14.90;51.30
21778;DHT22;11050;52.222;20.916;2023-05-10T07:47:43;15.00;49.60
21778;DHT22;11050;52.222;20.916;2023-05-10T07:50:09;15.10;49.30
21778;DHT22;11050;52.222;20.916;2023-05-10T07:52:35;15.10;48.10
21778;DHT22;11050;52.222;20.916;2023-05-10T07:55:01;15.10;46.30
21778;DHT22;11050;52.222;20.916;2023-05-10T07:57:27;15.20;48.10
21778;DHT22;11050;52.222;20.916;2023-05-10T07:59:52;15.30;48.20
21778;DHT22;11050;52.222;20.916;2023-05-10T08:02:18;15.40;47.00
21778;DHT22;11050;52.222;20.916;2023-05-10T08:04:43;15.40;47.10
21778;DHT22;11050;52.222;20.916;2023-05-10T08:07:09;15.50;47.90
21778;DHT22;11050;52.222;20.916;2023-05-10T08:09:36;15.60;49.20
21778;DHT22;11050;52.222;20.916;2023-05-10T08:12:01;15.80;47.50
21778;DHT22;11050;52.222;20.916;2023-05-10T08:14:30;15.80;45.90
21778;DHT22;11050;52.222;20.916;2023-05-10T08:16:56;15.80;43.40
21778;DHT22;11050;52.222;20.916;2023-05-10T08:19:21;15.80;43.30
21778;DHT22;11050;52.222;20.916;2023-05-10T08:21:48;15.80;44.00
21778;DHT22;11050;52.222;20.916;2023-05-10T08:24:14;15.90;44.00
21778;DHT22;11050;52.222;20.916;2023-05-10T08:26:40;15.90;44.60
21778;DHT22;11050;52.222;20.916;2023-05-10T08:29:06;16.00;43.20
21778;DHT22;11050;52.222;20.916;2023-05-10T08:31:31;16.00;42.60
21778;DHT22;11050;52.222;20.916;2023-05-10T08:33:57;16.00;42.40
21778;DHT22;11050;52.222;20.916;2023-05-10T08:36:23;16.10;41.90
21778;DHT22;11050;52.222;20.916;2023-05-10T08:38:53;16.10;43.30
21778;DHT22;11050;52.222;20.916;2023-05-10T08:41:20;16.20;44.40
21778;DHT22;11050;52.222;20.916;2023-05-10T08:43:47;16.30;42.20
21778;DHT22;11050;52.222;20.916;2023-05-10T08:46:16;16.40;41.80
21778;DHT22;11050;52.222;20.916;2023-05-10T08:48:44;16.40;42.20
21778;DHT22;11050;52.222;20.916;2023-05-10T08:51:18;16.50;43.90
21778;DHT22;11050;52.222;20.916;2023-05-10T08:53:47;16.60;42.90
21778;DHT22;11050;52.222;20.916;2023-05-10T08:56:13;16.70;43.60
21778;DHT22;11050;52.222;20.916;2023-05-10T08:58:41;16.80;43.70
21778;DHT22;11050;52.222;20.916;2023-05-10T09:01:07;16.90;44.40
21778;DHT22;11050;52.222;20.916;2023-05-10T09:03:34;17.00;43.70
21778;DHT22;11050;52.222;20.916;2023-05-10T09:06:00;17.10;42.60
21778;DHT22;11050;52.222;20.916;2023-05-10T09:08:26;17.20;41.70
21778;DHT22;11050;52.222;20.916;2023-05-10T09:10:54;17.20;42.20
21778;DHT22;11050;52.222;20.916;2023-05-10T09:13:21;17.30;42.00
21778;DHT22;11050;52.222;20.916;2023-05-10T09:15:48;17.30;42.30
21778;DHT22;11050;52.222;20.916;2023-05-10T09:18:14;17.40;42.20
21778;DHT22;11050;52.222;20.916;2023-05-10T09:20:40;17.40;41.20
21778;DHT22;11050;52.222;20.916;2023-05-10T09:23:06;17.40;40.60
21778;DHT22;11050;52.222;20.916;2023-05-10T09:25:32;17.40;40.10
21778;DHT22;11050;52.222;20.916;2023-05-10T09:27:59;17.40;38.90
21778;DHT22;11050;52.222;20.916;2023-05-10T09:30:27;17.40;39.60
21778;DHT22;11050;52.222;20.916;2023-05-10T09:32:57;17.40;39.60
21778;DHT22;11050;52.222;20.916;2023-05-10T09:35:27;17.40;39.80
21778;DHT22;11050;52.222;20.916;2023-05-10T09:37:56;17.40;41.00
21778;DHT22;11050;52.222;20.916;2023-05-10T09:40:24;17.50;42.40
21778;DHT22;11050;52.222;20.916;2023-05-10T09:43:08;17.60;43.10
21778;DHT22;11050;52.222;20.916;2023-05-10T09:45:35;17.70;41.10
21778;DHT22;11050;52.222;20.916;2023-05-10T09:48:02;17.80;40.00
21778;DHT22;11050;52.222;20.916;2023-05-10T09:50:29;17.80;40.20
21778;DHT22;11050;52.222;20.916;2023-05-10T09:58:01;18.00;42.70
21778;DHT22;11050;52.222;20.916;2023-05-10T10:00:28;18.10;42.60
21778;DHT22;11050;52.222;20.916;2023-05-10T10:03:00;18.20;42.40
21778;DHT22;11050;52.222;20.916;2023-05-10T10:05:34;18.20;41.70
21778;DHT22;11050;52.222;20.916;2023-05-10T10:08:03;18.30;41.50
21778;DHT22;11050;52.222;20.916;2023-05-10T10:10:32;18.40;42.00
21778;DHT22;11050;52.222;20.916;2023-05-10T10:12:59;18.40;42.00
21778;DHT22;11050;52.222;20.916;2023-05-10T10:15:25;18.50;40.80
21778;DHT22;11050;52.222;20.916;2023-05-10T10:17:53;18.50;40.70
21778;DHT22;11050;52.222;20.916;2023-05-10T10:20:20;18.60;41.30
21778;DHT22;11050;52.222;20.916;2023-05-10T10:22:48;18.70;41.30
21778;DHT22;11050;52.222;20.916;2023-05-10T10:25:18;18.80;40.30
21778;DHT22;11050;52.222;20.916;2023-05-10T10:36:14;19.20;41.30
21778;DHT22;11050;52.222;20.916;2023-05-10T10:41:35;19.60;39.70
21778;DHT22;11050;52.222;20.916;2023-05-10T10:49:49;19.80;37.00
21778;DHT22;11050;52.222;20.916;2023-05-10T10:52:37;19.80;37.10
21778;DHT22;11050;52.222;20.916;2023-05-10T11:00:38;20.10;37.00
21778;DHT22;11050;52.222;20.916;2023-05-10T11:03:10;20.30;37.30
21778;DHT22;11050;52.222;20.916;2023-05-10T11:05:49;20.50;36.90
21778;DHT22;11050;52.222;20.916;2023-05-10T11:13:46;21.00;34.10
21778;DHT22;11050;52.222;20.916;2023-05-10T11:16:15;21.10;34.70
21778;DHT22;11050;52.222;20.916;2023-05-10T11:18:53;21.20;35.30
21778;DHT22;11050;52.222;20.916;2023-05-10T11:21:19;21.40;35.30
21778;DHT22;11050;52.222;20.916;2023-05-10T11:23:50;21.60;34.50
21778;DHT22;11050;52.222;20.916;2023-05-10T11:26:17;21.80;32.60
21778;DHT22;11050;52.222;20.916;2023-05-10T11:28:48;21.80;32.80
21778;DHT22;11050;52.222;20.916;2023-05-10T11:31:15;21.70;33.20
21778;DHT22;11050;52.222;20.916;2023-05-10T11:33:49;21.90;34.40
21778;DHT22;11050;52.222;20.916;2023-05-10T11:36:21;22.10;32.90
21778;DHT22;11050;52.222;20.916;2023-05-10T11:38:51;22.30;33.70
21778;DHT22;11050;52.222;20.916;2023-05-10T11:41:18;22.40;34.30
21778;DHT22;11050;52.222;20.916;2023-05-10T11:43:49;22.60;33.30
21778;DHT22;11050;52.222;20.916;2023-05-10T11:46:17;22.80;33.10
21778;DHT22;11050;52.222;20.916;2023-05-10T11:48:45;22.90;32.30
21778;DHT22;11050;52.222;20.916;2023-05-10T11:51:12;23.00;30.50
21778;DHT22;11050;52.222;20.916;2023-05-10T11:53:38;22.90;31.70
21778;DHT22;11050;52.222;20.916;2023-05-10T11:56:05;23.00;32.60
21778;DHT22;11050;52.222;20.916;2023-05-10T11:58:34;23.10;33.90
21778;DHT22;11050;52.222;20.916;2023-05-10T12:01:01;23.30;32.40
21778;DHT22;11050;52.222;20.916;2023-05-10T12:03:28;23.50;32.40
21778;DHT22;11050;52.222;20.916;2023-05-10T12:05:55;23.70;32.10
21778;DHT22;11050;52.222;20.916;2023-05-10T12:08:23;23.90;31.80
21778;DHT22;11050;52.222;20.916;2023-05-10T12:10:51;24.00;31.50
21778;DHT22;11050;52.222;20.916;2023-05-10T12:13:19;24.10;30.90
21778;DHT22;11050;52.222;20.916;2023-05-10T12:15:46;24.30;30.00
21778;DHT22;11050;52.222;20.916;2023-05-10T12:18:13;24.40;29.90
21778;DHT22;11050;52.222;20.916;2023-05-10T12:20:40;24.60;29.50
21778;DHT22;11050;52.222;20.916;2023-05-10T12:23:08;24.80;29.10
21778;DHT22;11050;52.222;20.916;2023-05-10T12:25:36;24.90;29.00
21778;DHT22;11050;52.222;20.916;2023-05-10T12:28:05;24.90;29.50
21778;DHT22;11050;52.222;20.916;2023-05-10T12:30:34;25.00;29.50
21778;DHT22;11050;52.222;20.916;2023-05-10T12:33:10;24.90;27.90
21778;DHT22;11050;52.222;20.916;2023-05-10T12:35:50;24.90;28.80
21778;DHT22;11050;52.222;20.916;2023-05-10T12:38:35;25.00;28.10
21778;DHT22;11050;52.222;20.916;2023-05-10T12:41:08;25.20;29.10
21778;DHT22;11050;52.222;20.916;2023-05-10T12:43:35;25.30;29.40
21778;DHT22;11050;52.222;20.916;2023-05-10T12:46:20;25.50;29.30
21778;DHT22;11050;52.222;20.916;2023-05-10T12:48:46;25.70;27.40
21778;DHT22;11050;52.222;20.916;2023-05-10T12:51:14;25.80;28.20
21778;DHT22;11050;52.222;20.916;2023-05-10T12:53:44;25.80;28.10
21778;DHT22;11050;52.222;20.916;2023-05-10T12:56:11;25.90;28.40
21778;DHT22;11050;52.222;20.916;2023-05-10T12:58:36;26.00;26.60
21778;DHT22;11050;52.222;20.916;2023-05-10T13:01:04;25.90;28.80
21778;DHT22;11050;52.222;20.916;2023-05-10T13:03:30;26.10;28.30
21778;DHT22;11050;52.222;20.916;2023-05-10T13:05:56;26.20;26.60
21778;DHT22;11050;52.222;20.916;2023-05-10T13:08:21;26.20;27.60
21778;DHT22;11050;52.222;20.916;2023-05-10T13:10:47;26.40;27.50
21778;DHT22;11050;52.222;20.916;2023-05-10T13:13:14;26.50;26.70
21778;DHT22;11050;52.222;20.916;2023-05-10T13:15:40;26.60;26.80
21778;DHT22;11050;52.222;20.916;2023-05-10T13:18:06;26.70;26.20
21778;DHT22;11050;52.222;20.916;2023-05-10T13:20:31;26.70;27.00
21778;DHT22;11050;52.222;20.916;2023-05-10T13:22:57;26.80;26.50
21778;DHT22;11050;52.222;20.916;2023-05-10T13:25:23;26.80;27.30
21778;DHT22;11050;52.222;20.916;2023-05-10T13:27:48;26.90;25.90
21778;DHT22;11050;52.222;20.916;2023-05-10T13:30:14;26.90;26.80
21778;DHT22;11050;52.222;20.916;2023-05-10T13:32:40;26.90;25.90
21778;DHT22;11050;52.222;20.916;2023-05-10T13:35:07;26.80;26.20
21778;DHT22;11050;52.222;20.916;2023-05-10T13:37:33;26.90;27.00
21778;DHT22;11050;52.222;20.916;2023-05-10T13:40:02;27.10;26.20
21778;DHT22;11050;52.222;20.916;2023-05-10T13:42:29;27.20;26.70
21778;DHT22;11050;52.222;20.916;2023-05-10T13:44:56;27.30;25.60
21778;DHT22;11050;52.222;20.916;2023-05-10T13:47:22;27.30;25.50
21778;DHT22;11050;52.222;20.916;2023-05-10T13:49:48;27.30;25.90
21778;DHT22;11050;52.222;20.916;2023-05-10T13:52:13;27.40;26.40
21778;DHT22;11050;52.222;20.916;2023-05-10T13:54:39;27.50;26.00
21778;DHT22;11050;52.222;20.916;2023-05-10T13:57:05;27.50;24.70
21778;DHT22;11050;52.222;20.916;2023-05-10T13:59:32;27.60;24.50
21778;DHT22;11050;52.222;20.916;2023-05-10T14:01:58;27.40;24.80
21778;DHT22;11050;52.222;20.916;2023-05-10T14:04:24;27.30;25.40
21778;DHT22;11050;52.222;20.916;2023-05-10T14:06:50;27.30;25.50
21778;DHT22;11050;52.222;20.916;2023-05-10T14:09:18;27.40;25.10
21778;DHT22;11050;52.222;20.916;2023-05-10T14:11:44;27.50;25.70
21778;DHT22;11050;52.222;20.916;2023-05-10T14:14:11;27.70;25.70
21778;DHT22;11050;52.222;20.916;2023-05-10T14:16:38;27.80;24.50
21778;DHT22;11050;52.222;20.916;2023-05-10T14:19:03;27.80;25.30
21778;DHT22;11050;52.222;20.916;2023-05-10T14:21:29;27.90;24.90
21778;DHT22;11050;52.222;20.916;2023-05-10T14:23:56;27.90;25.30
21778;DHT22;11050;52.222;20.916;2023-05-10T14:26:21;27.90;25.70
21778;DHT22;11050;52.222;20.916;2023-05-10T14:28:47;28.10;24.80
21778;DHT22;11050;52.222;20.916;2023-05-10T14:31:13;28.10;24.10
21778;DHT22;11050;52.222;20.916;2023-05-10T14:33:40;28.00;24.50
21778;DHT22;11050;52.222;20.916;2023-05-10T14:36:06;28.20;25.40
21778;DHT22;11050;52.222;20.916;2023-05-10T14:38:32;28.40;24.80
21778;DHT22;11050;52.222;20.916;2023-05-10T14:40:58;28.50;24.90
21778;DHT22;11050;52.222;20.916;2023-05-10T14:43:24;28.50;24.60
21778;DHT22;11050;52.222;20.916;2023-05-10T14:45:50;28.60;24.40
21778;DHT22;11050;52.222;20.916;2023-05-10T14:48:15;28.70;24.40
21778;DHT22;11050;52.222;20.916;2023-05-10T14:50:43;28.80;24.20
21778;DHT22;11050;52.222;20.916;2023-05-10T14:53:09;28.70;24.10
21778;DHT22;11050;52.222;20.916;2023-05-10T14:55:35;28.70;24.40
21778;DHT22;11050;52.222;20.916;2023-05-10T14:58:02;28.50;24.30
21778;DHT22;11050;52.222;20.916;2023-05-10T15:00:29;28.50;24.40
21778;DHT22;11050;52.222;20.916;2023-05-10T15:02:55;28.50;24.40
21778;DHT22;11050;52.222;20.916;2023-05-10T15:05:21;28.50;24.50
21778;DHT22;11050;52.222;20.916;2023-05-10T15:07:47;28.50;24.60
21778;DHT22;11050;52.222;20.916;2023-05-10T15:10:13;28.50;24.00
21778;DHT22;11050;52.222;20.916;2023-05-10T15:12:39;28.50;24.40
21778;DHT22;11050;52.222;20.916;2023-05-10T15:15:06;28.50;24.30
21778;DHT22;11050;52.222;20.916;2023-05-10T15:17:32;28.50;24.00
21778;DHT22;11050;52.222;20.916;2023-05-10T15:19:57;28.40;24.00
21778;DHT22;11050;52.222;20.916;2023-05-10T15:22:23;28.30;24.00
21778;DHT22;11050;52.222;20.916;2023-05-10T15:24:50;28.30;24.40
21778;DHT22;11050;52.222;20.916;2023-05-10T15:27:16;28.30;23.90
21778;DHT22;11050;52.222;20.916;2023-05-10T15:29:41;28.30;24.40
21778;DHT22;11050;52.222;20.916;2023-05-10T15:32:07;28.30;24.90
21778;DHT22;11050;52.222;20.916;2023-05-10T15:34:33;28.30;24.60
21778;DHT22;11050;52.222;20.916;2023-05-10T15:36:58;28.40;24.10
21778;DHT22;11050;52.222;20.916;2023-05-10T15:39:25;28.30;24.40
21778;DHT22;11050;52.222;20.916;2023-05-10T15:41:53;28.30;24.60
21778;DHT22;11050;52.222;20.916;2023-05-10T15:44:19;28.10;24.40
21778;DHT22;11050;52.222;20.916;2023-05-10T15:46:44;28.10;24.80
21778;DHT22;11050;52.222;20.916;2023-05-10T15:49:10;28.10;24.80
21778;DHT22;11050;52.222;20.916;2023-05-10T15:51:36;28.10;24.80
21778;DHT22;11050;52.222;20.916;2023-05-10T15:54:02;28.10;24.30
21778;DHT22;11050;52.222;20.916;2023-05-10T15:56:28;28.10;24.80
21778;DHT22;11050;52.222;20.916;2023-05-10T15:58:54;28.00;24.50
21778;DHT22;11050;52.222;20.916;2023-05-10T16:01:20;27.90;24.00
21778;DHT22;11050;52.222;20.916;2023-05-10T16:03:46;27.80;24.40
21778;DHT22;11050;52.222;20.916;2023-05-10T16:06:11;27.90;24.80
21778;DHT22;11050;52.222;20.916;2023-05-10T16:08:37;27.90;24.30